createdAt,value
2019-01-11T00:00:37.151Z,18.10
2019-01-11T00:03:06.493Z,16.50
2019-01-11T00:05:38.583Z,16.33
2019-01-11T00:08:08.113Z,14.27
2019-01-11T00:10:37.617Z,23.23
2019-01-11T00:13:09.395Z,19.17
2019-01-11T00:15:39.090Z,19.67
2019-01-11T00:18:10.774Z,22.00
2019-01-11T00:20:42.216Z,22.17
2019-01-11T00:23:11.730Z,18.43
2019-01-11T00:25:43.462Z,14.47
2019-01-11T00:28:13.362Z,19.17
2019-01-11T00:30:45.396Z,17.80
2019-01-11T00:33:17.282Z,21.53
2019-01-11T00:35:48.834Z,15.63
2019-01-11T00:38:20.201Z,22.17
2019-01-11T00:40:52.736Z,14.63
2019-01-11T00:43:24.068Z,16.33
2019-01-11T00:45:53.602Z,15.60
2019-01-11T00:48:25.283Z,23.43
2019-01-11T00:50:55.173Z,22.80
2019-01-11T00:53:26.783Z,18.10
2019-01-11T00:55:56.944Z,22.20
2019-01-11T00:58:26.538Z,19.83
2019-01-11T01:00:56.079Z,16.20
2019-01-11T01:03:25.503Z,13.53
2019-01-11T01:05:55.094Z,12.20
2019-01-11T01:08:30.411Z,17.90
2019-01-11T01:10:55.747Z,18.00
2019-01-11T01:13:25.307Z,15.77
2019-01-11T01:15:54.991Z,16.47
2019-01-11T01:18:26.967Z,16.47
2019-01-11T01:20:56.415Z,17.83
2019-01-11T01:23:25.985Z,16.67
2019-01-11T01:25:57.672Z,15.63
2019-01-11T01:28:30.978Z,16.20
2019-01-11T01:31:02.943Z,17.03
2019-01-11T01:33:32.514Z,17.13
2019-01-11T01:36:03.159Z,16.57
2019-01-11T01:38:34.381Z,19.33
2019-01-11T01:41:04.191Z,17.80
2019-01-11T01:43:35.941Z,14.83
2019-01-11T01:46:06.021Z,17.60
2019-01-11T01:48:35.292Z,17.10
2019-01-11T01:51:04.790Z,21.23
2019-01-11T01:53:36.763Z,16.50
2019-01-11T01:56:06.154Z,15.83
2019-01-11T01:58:35.525Z,17.60
2019-01-11T02:01:05.520Z,16.93
2019-01-11T02:03:36.870Z,15.93
2019-01-11T02:06:08.744Z,15.07
2019-01-11T02:08:41.488Z,14.70
2019-01-11T02:11:11.417Z,16.93
2019-01-11T02:13:44.873Z,16.50
2019-01-11T02:16:14.350Z,19.33
2019-01-11T02:18:44.090Z,19.47
2019-01-11T02:21:15.325Z,17.27
2019-01-11T02:23:45.042Z,13.50
2019-01-11T02:26:14.399Z,19.80
2019-01-11T02:28:46.208Z,15.47
2019-01-11T02:31:15.630Z,15.20
2019-01-11T02:33:48.411Z,18.50
2019-01-11T02:36:18.316Z,15.73
2019-01-11T02:38:48.228Z,15.50
2019-01-11T02:41:19.687Z,12.07
2019-01-11T02:43:49.240Z,13.83
2019-01-11T02:46:20.216Z,11.97
2019-01-11T02:48:49.666Z,11.00
2019-01-11T02:51:21.518Z,13.07
2019-01-11T02:53:52.778Z,15.50
2019-01-11T02:56:24.157Z,13.33
2019-01-11T02:58:54.993Z,17.70
2019-01-11T03:01:26.309Z,16.67
2019-01-11T03:03:57.010Z,19.03
2019-01-11T03:06:28.861Z,15.23
2019-01-11T03:09:00.285Z,14.27
2019-01-11T03:11:29.927Z,15.40
2019-01-11T03:13:59.776Z,14.53
2019-01-11T03:16:32.015Z,11.70
2019-01-11T03:19:01.347Z,13.30
2019-01-11T03:21:32.962Z,17.20
2019-01-11T03:24:02.421Z,14.70
2019-01-11T03:26:32.230Z,13.70
2019-01-11T03:29:01.756Z,12.80
2019-01-11T03:31:36.900Z,12.90
2019-01-11T03:34:08.223Z,12.87
2019-01-11T03:36:38.056Z,18.40
2019-01-11T03:39:08.685Z,12.03
2019-01-11T03:41:51.681Z,11.30
2019-01-11T03:44:21.796Z,11.80
2019-01-11T03:46:53.658Z,11.90
2019-01-11T03:49:23.186Z,13.90
2019-01-11T03:51:54.798Z,11.10
2019-01-11T03:54:26.674Z,17.30
2019-01-11T03:56:58.728Z,15.90
2019-01-11T03:59:30.098Z,14.40
2019-01-11T04:01:59.521Z,9.07
2019-01-11T04:04:30.297Z,14.57
2019-01-11T04:07:00.024Z,10.50
2019-01-11T04:09:30.303Z,14.40
2019-01-11T04:12:00.143Z,15.20
2019-01-11T04:14:32.295Z,10.67
2019-01-11T04:17:02.275Z,13.33
2019-01-11T04:19:32.301Z,16.90
2019-01-11T04:22:21.466Z,11.00
2019-01-11T04:25:07.827Z,15.70
2019-01-11T04:27:37.245Z,12.00
2019-01-11T04:30:12.331Z,15.70
2019-01-11T04:32:42.496Z,11.30
2019-01-11T04:35:13.087Z,18.17
2019-01-11T04:37:44.673Z,17.60
2019-01-11T04:40:17.772Z,11.50
2019-01-11T04:42:47.171Z,9.60
2019-01-11T04:45:17.483Z,9.97
2019-01-11T04:47:46.949Z,13.97
2019-01-11T04:50:20.301Z,12.10
2019-01-11T04:52:51.534Z,15.20
2019-01-11T04:55:21.963Z,13.60
2019-01-11T04:57:54.027Z,12.07
2019-01-11T05:00:24.281Z,14.67
2019-01-11T05:02:53.702Z,11.90
2019-01-11T05:05:23.251Z,21.60
2019-01-11T05:07:55.069Z,12.83
2019-01-11T05:10:27.044Z,11.47
2019-01-11T05:12:58.062Z,15.37
2019-01-11T05:15:29.524Z,12.60
2019-01-11T05:17:58.994Z,14.20
2019-01-11T05:20:28.368Z,11.20
2019-01-11T05:22:58.122Z,16.23
2019-01-11T05:25:27.495Z,12.83
2019-01-11T05:27:57.767Z,12.73
2019-01-11T05:30:29.796Z,12.87
2019-01-11T05:33:03.152Z,13.70
2019-01-11T05:35:35.213Z,15.23
2019-01-11T05:38:06.109Z,23.20
2019-01-11T05:40:35.492Z,18.10
2019-01-11T05:43:05.363Z,14.77
2019-01-11T05:45:35.729Z,17.83
2019-01-11T05:48:05.336Z,16.43
2019-01-11T05:50:34.628Z,13.10
2019-01-11T05:53:05.125Z,19.33
2019-01-11T05:55:47.370Z,16.97
2019-01-11T05:58:44.769Z,18.27
2019-01-11T06:01:18.024Z,15.53
2019-01-11T06:03:47.866Z,10.70
2019-01-11T06:06:17.754Z,11.00
2019-01-11T06:08:47.117Z,13.23
2019-01-11T06:11:17.003Z,14.90
2019-01-11T06:13:46.580Z,15.73
2019-01-11T06:16:19.045Z,13.43
2019-01-11T06:18:49.483Z,12.23
2019-01-11T06:21:23.316Z,12.33
2019-01-11T06:24:12.335Z,11.67
2019-01-11T06:26:45.049Z,14.37
2019-01-11T06:29:14.522Z,13.47
2019-01-11T06:31:45.240Z,13.23
2019-01-11T06:34:16.497Z,11.20
2019-01-11T06:36:48.348Z,13.50
2019-01-11T06:39:20.274Z,12.87
2019-01-11T06:41:54.381Z,11.30
2019-01-11T06:44:26.361Z,10.83
2019-01-11T06:46:58.615Z,11.80
2019-01-11T06:49:30.181Z,11.20
2019-01-11T06:52:02.501Z,15.40
2019-01-11T06:54:32.106Z,22.83
2019-01-11T06:57:02.599Z,13.23
2019-01-11T06:59:32.350Z,14.90
2019-01-11T07:02:03.753Z,14.93
2019-01-11T07:04:36.484Z,14.80
2019-01-11T07:07:07.317Z,13.30
2019-01-11T07:09:36.814Z,17.30
2019-01-11T07:12:07.875Z,19.10
2019-01-11T07:14:38.370Z,20.17
2019-01-11T07:17:08.878Z,18.23
2019-01-11T07:19:40.280Z,15.90
2019-01-11T07:22:11.787Z,15.70
2019-01-11T07:24:43.009Z,20.20
2019-01-11T07:27:13.911Z,14.13
2019-01-11T07:29:45.554Z,18.67
2019-01-11T07:32:16.917Z,12.10
2019-01-11T07:34:49.019Z,12.90
2019-01-11T07:37:19.416Z,12.70
2019-01-11T07:39:49.870Z,16.63
2019-01-11T07:42:20.871Z,13.00
2019-01-11T07:44:52.792Z,11.60
2019-01-11T07:47:24.212Z,12.17
2019-01-11T07:49:54.907Z,13.27
2019-01-11T07:52:26.256Z,16.30
2019-01-11T07:54:56.998Z,15.80
2019-01-11T07:57:29.985Z,14.13
2019-01-11T08:00:01.082Z,15.67
2019-01-11T08:02:32.071Z,14.77
2019-01-11T08:05:02.636Z,14.13
2019-01-11T08:07:33.316Z,14.77
2019-01-11T08:10:05.536Z,16.17
2019-01-11T08:12:37.016Z,13.10
2019-01-11T08:15:08.561Z,15.63
2019-01-11T08:17:40.563Z,19.60
2019-01-11T08:20:12.287Z,16.60
2019-01-11T08:22:43.158Z,14.07
2019-01-11T08:25:13.895Z,15.70
2019-01-11T08:27:45.497Z,17.77
2019-01-11T08:30:18.191Z,17.07
2019-01-11T08:32:50.036Z,14.90
2019-01-11T08:35:21.833Z,13.10
2019-01-11T08:37:53.906Z,15.27
2019-01-11T08:40:25.655Z,16.20
2019-01-11T08:42:57.782Z,14.90
2019-01-11T08:45:29.657Z,11.80
2019-01-11T08:48:00.484Z,15.30
2019-01-11T08:50:31.644Z,14.27
2019-01-11T08:53:03.005Z,12.03
2019-01-11T08:55:35.017Z,12.90
2019-01-11T08:58:07.658Z,18.23
2019-01-11T09:00:38.046Z,17.63
2019-01-11T09:03:08.895Z,17.30
2019-01-11T09:05:41.713Z,15.63
2019-01-11T09:08:13.510Z,13.67
2019-01-11T09:10:45.852Z,10.20
2019-01-11T09:13:16.672Z,10.17
2019-01-11T09:15:47.479Z,20.40
2019-01-11T09:18:19.547Z,16.63
2019-01-11T09:20:50.792Z,13.37
2019-01-11T09:23:23.573Z,11.17
2019-01-11T09:25:54.250Z,11.67
2019-01-11T09:28:25.370Z,15.20
2019-01-11T09:30:57.026Z,14.87
2019-01-11T09:33:29.104Z,17.20
2019-01-11T09:36:01.435Z,13.17
2019-01-11T09:38:33.482Z,12.23
2019-01-11T09:41:04.905Z,13.20
2019-01-11T09:43:35.853Z,15.87
2019-01-11T09:46:09.020Z,15.47
2019-01-11T09:48:41.515Z,13.03
2019-01-11T09:51:15.821Z,16.10
2019-01-11T09:53:48.307Z,14.67
2019-01-11T09:56:18.310Z,14.57
2019-01-11T09:58:49.297Z,13.93
2019-01-11T10:01:20.975Z,15.13
2019-01-11T10:03:54.349Z,17.10
2019-01-11T10:06:26.876Z,16.67
2019-01-11T10:08:59.129Z,14.07
2019-01-11T10:11:31.465Z,13.17
2019-01-11T10:14:03.840Z,13.87
2019-01-11T10:16:36.268Z,15.00
2019-01-11T10:19:06.283Z,13.43
2019-01-11T10:21:37.741Z,20.83
2019-01-11T10:24:10.665Z,18.70
2019-01-11T10:26:42.152Z,16.20
2019-01-11T10:29:13.616Z,12.27
2019-01-11T10:31:43.392Z,16.20
2019-01-11T10:34:15.895Z,14.40
2019-01-11T10:36:47.311Z,12.23
2019-01-11T10:39:19.968Z,15.93
2019-01-11T10:41:51.521Z,15.53
2019-01-11T10:44:23.555Z,13.60
2019-01-11T10:46:53.250Z,15.60
2019-01-11T10:49:24.446Z,19.37
2019-01-11T10:51:54.010Z,9.93
2019-01-11T10:54:37.481Z,12.80
2019-01-11T10:57:09.511Z,16.40
2019-01-11T10:59:39.727Z,15.23
2019-01-11T11:02:11.286Z,14.20
2019-01-11T11:04:43.356Z,12.90
2019-01-11T11:07:15.683Z,14.13
2019-01-11T11:09:47.653Z,10.20
2019-01-11T11:12:20.050Z,14.67
2019-01-11T11:14:53.412Z,13.40
2019-01-11T11:17:25.858Z,18.47
2019-01-11T11:19:59.617Z,15.90
2019-01-11T11:22:31.229Z,17.50
2019-01-11T11:25:04.615Z,16.90
2019-01-11T11:27:35.424Z,16.50
2019-01-11T11:30:07.505Z,15.17
2019-01-11T11:33:02.679Z,14.97
2019-01-11T11:35:34.206Z,12.37
2019-01-11T11:38:03.724Z,13.50
2019-01-11T11:40:35.524Z,12.63
2019-01-11T11:43:08.339Z,10.87
2019-01-11T11:45:39.532Z,11.07
2019-01-11T11:48:10.244Z,12.60
2019-01-11T11:50:41.505Z,15.93
2019-01-11T11:53:16.358Z,15.00
2019-01-11T11:55:46.161Z,12.73
2019-01-11T11:58:17.270Z,15.07
2019-01-11T12:00:46.900Z,12.70
2019-01-11T12:03:18.332Z,15.10
2019-01-11T12:05:50.560Z,10.60
2019-01-11T12:08:21.088Z,16.80
2019-01-11T12:10:54.862Z,14.00
2019-01-11T12:13:24.993Z,15.70
2019-01-11T12:15:55.790Z,16.07
2019-01-11T12:18:25.572Z,12.73
2019-01-11T12:20:57.571Z,17.77
2019-01-11T12:23:29.277Z,12.50
2019-01-11T12:25:59.774Z,14.43
2019-01-11T12:28:30.529Z,13.50
2019-01-11T12:31:02.222Z,13.03
2019-01-11T12:33:33.931Z,21.60
2019-01-11T12:36:05.297Z,18.03
2019-01-11T12:38:38.315Z,12.77
2019-01-11T12:41:09.988Z,17.40
2019-01-11T12:43:41.760Z,11.23
2019-01-11T12:46:14.120Z,14.80
2019-01-11T12:48:44.954Z,19.17
2019-01-11T12:51:19.033Z,14.77
2019-01-11T12:56:52.452Z,14.50
2019-01-11T12:59:22.471Z,14.40
2019-01-11T13:02:20.464Z,15.77
2019-01-11T13:04:50.018Z,12.13
2019-01-11T13:07:19.555Z,16.23
2019-01-11T13:09:50.236Z,16.30
2019-01-11T13:12:19.943Z,18.70
2019-01-11T13:14:53.009Z,12.20
2019-01-11T13:17:23.528Z,16.97
2019-01-11T13:19:58.111Z,15.70
2019-01-11T13:22:27.867Z,15.63
2019-01-11T13:24:57.183Z,14.40
2019-01-11T13:27:26.589Z,15.57
2019-01-11T13:29:58.558Z,11.17
2019-01-11T13:32:28.297Z,9.97
2019-01-11T13:34:58.348Z,16.27
2019-01-11T13:37:29.667Z,14.20
2019-01-11T13:39:59.153Z,14.73
2019-01-11T13:42:28.684Z,15.47
2019-01-11T13:44:58.110Z,19.07
2019-01-11T13:47:28.046Z,14.80
2019-01-11T13:50:00.240Z,16.60
2019-01-11T13:52:31.412Z,20.07
2019-01-11T13:55:04.666Z,18.17
2019-01-11T13:57:34.561Z,14.90
2019-01-11T14:00:08.306Z,18.67
2019-01-11T14:02:40.653Z,13.20
2019-01-11T14:05:11.485Z,17.43
2019-01-11T14:07:43.755Z,16.00
2019-01-11T14:10:16.104Z,11.70
2019-01-11T14:12:45.667Z,17.23
2019-01-11T14:15:15.342Z,16.00
2019-01-11T14:17:48.524Z,20.63
2019-01-11T14:20:22.689Z,17.30
2019-01-11T14:22:54.732Z,20.13
2019-01-11T14:25:24.746Z,17.50
2019-01-11T14:27:57.179Z,20.93
2019-01-11T14:30:27.268Z,14.67
2019-01-11T14:33:00.244Z,17.70
2019-01-11T14:35:31.015Z,19.70
2019-01-11T14:38:00.434Z,17.97
2019-01-11T14:40:30.058Z,14.43
2019-01-11T14:43:01.961Z,18.53
2019-01-11T14:45:31.476Z,14.60
2019-01-11T14:48:04.046Z,13.80
2019-01-11T14:50:33.570Z,18.30
2019-01-11T14:53:05.844Z,16.43
2019-01-11T14:55:38.236Z,13.30
2019-01-11T14:58:09.796Z,14.03
2019-01-11T15:00:42.007Z,14.37
2019-01-11T15:03:13.492Z,17.43
2019-01-11T15:05:42.946Z,14.63
2019-01-11T15:08:15.548Z,10.97
2019-01-11T15:10:45.161Z,15.57
2019-01-11T15:13:16.908Z,10.90
2019-01-11T15:15:48.666Z,13.07
2019-01-11T15:18:18.674Z,14.33
2019-01-11T15:20:50.407Z,15.63
2019-01-11T15:23:21.822Z,14.70
2019-01-11T15:25:53.636Z,18.53
2019-01-11T15:28:24.864Z,13.30
2019-01-11T15:30:54.523Z,9.33
2019-01-11T15:33:24.598Z,13.97
2019-01-11T15:35:55.276Z,14.27
2019-01-11T15:38:26.519Z,14.70
2019-01-11T15:40:57.363Z,10.23
2019-01-11T15:43:29.382Z,14.73
2019-01-11T15:46:07.490Z,14.00
2019-01-11T15:48:52.092Z,13.33
2019-01-11T15:51:28.514Z,10.30
2019-01-11T15:53:59.291Z,9.13
2019-01-11T15:56:33.672Z,11.50
2019-01-11T15:59:04.554Z,14.87
2019-01-11T16:01:35.744Z,13.23
2019-01-11T16:04:10.490Z,14.50
2019-01-11T16:06:42.688Z,12.20
2019-01-11T16:10:03.456Z,11.07
2019-01-11T16:13:05.043Z,10.77
2019-01-11T16:16:20.304Z,13.20
2019-01-11T16:18:54.726Z,10.37
2019-01-11T16:25:26.404Z,10.07
2019-01-11T16:28:29.043Z,11.80
2019-01-11T16:31:07.387Z,10.43
2019-01-11T16:34:26.334Z,8.50
2019-01-11T16:37:29.499Z,7.47
2019-01-11T16:40:08.507Z,7.67
2019-01-11T16:46:26.047Z,8.70
2019-01-11T16:50:02.531Z,9.00
2019-01-11T16:53:27.255Z,13.07
2019-01-11T16:57:04.938Z,12.40
2019-01-11T17:03:36.190Z,7.97
2019-01-11T17:06:43.649Z,10.80
2019-01-11T17:09:27.894Z,12.23
2019-01-11T17:12:02.862Z,15.20
2019-01-11T17:15:26.289Z,8.73
2019-01-11T17:18:52.996Z,13.63
2019-01-11T17:21:43.703Z,13.10
2019-01-11T17:28:25.069Z,11.17
2019-01-11T17:31:34.585Z,16.70
2019-01-11T17:34:04.505Z,9.50
2019-01-11T17:37:33.219Z,13.70
2019-01-11T17:42:46.191Z,12.30
2019-01-11T17:45:15.923Z,13.30
2019-01-11T17:48:05.971Z,13.93
2019-01-11T17:50:52.086Z,12.77
2019-01-11T17:53:50.591Z,12.67
2019-01-11T17:56:25.370Z,10.77
2019-01-11T18:02:29.901Z,11.93
2019-01-11T18:05:28.846Z,12.57
2019-01-11T18:07:59.450Z,10.47
2019-01-11T18:10:56.035Z,12.60
2019-01-11T18:13:35.184Z,10.57
2019-01-11T18:16:10.701Z,16.73
2019-01-11T18:18:56.133Z,20.70
2019-01-11T18:21:47.223Z,13.50
2019-01-11T18:24:21.300Z,15.17
2019-01-11T18:26:53.710Z,19.63
2019-01-11T18:29:25.912Z,20.87
2019-01-11T18:32:03.133Z,15.47
2019-01-11T18:34:32.978Z,23.67
2019-01-11T18:37:14.907Z,16.80
2019-01-11T18:39:48.808Z,14.90
2019-01-11T18:42:35.198Z,19.40
2019-01-11T18:45:11.081Z,12.77
2019-01-11T18:47:49.582Z,11.53
2019-01-11T18:50:24.994Z,16.87
2019-01-11T18:52:54.727Z,7.97
2019-01-11T18:55:31.455Z,11.60
2019-01-11T18:58:07.380Z,10.60
2019-01-11T19:00:46.457Z,7.60
2019-01-11T19:03:25.395Z,7.43
2019-01-11T19:06:10.240Z,7.70
2019-01-11T19:08:47.839Z,6.43
2019-01-11T19:11:17.481Z,7.20
2019-01-11T19:13:58.461Z,8.57
2019-01-11T19:16:59.378Z,9.03
2019-01-11T19:19:54.629Z,9.30
2019-01-11T19:22:27.769Z,10.27
2019-01-11T19:25:00.431Z,9.47
2019-01-11T19:27:35.354Z,7.33
2019-01-11T19:30:11.031Z,5.90
2019-01-11T19:32:42.789Z,8.37
2019-01-11T19:35:13.812Z,8.40
2019-01-11T19:37:55.663Z,9.87
2019-01-11T19:40:27.280Z,9.60
2019-01-11T19:42:59.666Z,10.40
2019-01-11T19:45:33.183Z,10.30
2019-01-11T19:48:07.172Z,7.30
2019-01-11T19:50:38.078Z,9.60
2019-01-11T19:53:11.678Z,7.37
2019-01-11T19:55:47.886Z,7.40
2019-01-11T19:58:18.855Z,8.20
2019-01-11T20:00:49.995Z,11.77
2019-01-11T20:03:55.072Z,7.83
2019-01-11T20:10:37.522Z,7.97
2019-01-11T20:14:07.346Z,4.97
2019-01-11T20:17:22.121Z,5.00
2019-01-11T20:20:15.291Z,6.50
2019-01-11T20:23:19.588Z,8.93
2019-01-11T20:29:35.133Z,5.27
2019-01-11T20:32:06.601Z,3.80
2019-01-11T20:35:14.470Z,3.40
2019-01-11T20:38:45.291Z,2.67
2019-01-11T20:45:08.375Z,3.13
2019-01-11T20:48:41.947Z,3.20
2019-01-11T20:54:48.559Z,3.00
2019-01-11T20:57:22.304Z,3.30
2019-01-11T21:03:49.160Z,5.77
2019-01-11T21:07:26.499Z,3.90
2019-01-11T21:12:46.775Z,3.83
2019-01-11T21:15:46.908Z,2.87
2019-01-11T21:21:28.267Z,3.43
2019-01-11T21:24:03.594Z,3.17
2019-01-11T21:27:00.963Z,3.63
2019-01-11T21:33:12.013Z,4.27
2019-01-11T21:36:20.121Z,5.03
2019-01-11T21:45:41.114Z,6.13
2019-01-11T22:36:58.830Z,3.23
2019-01-11T22:44:51.097Z,2.83
2019-01-11T22:48:11.276Z,2.70
2019-01-11T22:50:40.860Z,3.87
2019-01-11T22:53:10.444Z,3.30
2019-01-11T22:56:42.314Z,3.03
2019-01-11T22:59:13.676Z,4.57
2019-01-11T23:02:36.678Z,4.90
2019-01-11T23:05:48.618Z,5.03
2019-01-11T23:08:25.033Z,4.17
2019-01-11T23:11:30.278Z,5.60
2019-01-11T23:14:05.214Z,4.87
2019-01-11T23:16:53.779Z,3.90
2019-01-11T23:19:46.888Z,3.43
2019-01-11T23:22:16.891Z,6.10
2019-01-11T23:24:48.358Z,3.93
2019-01-11T23:27:33.183Z,8.20
2019-01-11T23:30:03.807Z,4.90
2019-01-11T23:32:35.529Z,6.97
2019-01-11T23:35:29.773Z,6.43
2019-01-11T23:37:59.912Z,4.23
2019-01-11T23:40:32.836Z,5.90
2019-01-11T23:43:06.819Z,4.17
2019-01-11T23:45:36.894Z,3.97
2019-01-11T23:48:06.352Z,8.57
2019-01-11T23:50:48.227Z,6.37
2019-01-11T23:53:24.019Z,5.10
2019-01-11T23:55:55.304Z,4.20
2019-01-11T23:58:26.109Z,3.80
